createdAt,value
2022-08-26T00:01:13.012Z,6.03
2022-08-26T00:03:14.993Z,4.93
2022-08-26T00:05:18.176Z,5.40
2022-08-26T00:07:19.613Z,5.38
2022-08-26T00:09:21.443Z,6.10
2022-08-26T00:11:26.802Z,5.22
2022-08-26T00:13:29.170Z,7.25
2022-08-26T00:15:30.569Z,6.35
2022-08-26T00:17:32.401Z,4.82
2022-08-26T00:19:34.332Z,5.18
2022-08-26T00:21:35.678Z,5.80
2022-08-26T00:23:38.938Z,5.40
2022-08-26T00:25:42.462Z,5.65
2022-08-26T00:27:44.410Z,5.07
2022-08-26T00:29:46.067Z,6.57
2022-08-26T00:31:47.488Z,5.25
2022-08-26T00:33:49.794Z,5.40
2022-08-26T00:35:51.547Z,5.55
2022-08-26T00:37:53.301Z,5.75
2022-08-26T00:39:54.779Z,5.25
2022-08-26T00:41:56.335Z,6.40
2022-08-26T00:43:57.983Z,7.43
2022-08-26T00:46:04.768Z,5.20
2022-08-26T00:48:07.673Z,7.22
2022-08-26T00:50:11.781Z,6.88
2022-08-26T00:52:14.841Z,5.63
2022-08-26T00:54:17.567Z,5.53
2022-08-26T00:56:22.435Z,5.40
2022-08-26T00:58:24.867Z,5.22
2022-08-26T01:00:27.394Z,5.85
2022-08-26T01:02:28.993Z,5.75
2022-08-26T01:04:31.275Z,7.45
2022-08-26T01:06:32.684Z,5.60
2022-08-26T01:08:35.127Z,6.28
2022-08-26T01:10:37.189Z,6.50
2022-08-26T01:12:41.240Z,6.60
2022-08-26T01:14:42.607Z,5.30
2022-08-26T01:16:48.205Z,5.40
2022-08-26T01:18:52.168Z,5.60
2022-08-26T01:20:53.642Z,7.22
2022-08-26T01:23:09.555Z,5.35
2022-08-26T01:25:11.069Z,6.03
2022-08-26T01:27:13.308Z,7.05
2022-08-26T01:29:16.163Z,7.22
2022-08-26T01:31:18.656Z,5.20
2022-08-26T01:33:28.839Z,4.93
2022-08-26T01:35:30.719Z,5.75
2022-08-26T01:37:36.338Z,5.40
2022-08-26T01:39:40.242Z,6.07
2022-08-26T01:41:44.029Z,5.43
2022-08-26T01:43:46.450Z,6.88
2022-08-26T01:45:50.079Z,6.00
2022-08-26T01:47:56.641Z,5.75
2022-08-26T01:50:00.037Z,6.47
2022-08-26T01:52:02.560Z,5.75
2022-08-26T01:54:05.339Z,5.20
2022-08-26T01:56:08.098Z,8.68
2022-08-26T01:58:13.687Z,5.88
2022-08-26T02:00:16.285Z,5.70
2022-08-26T02:02:17.930Z,5.43
2022-08-26T02:04:25.956Z,5.43
2022-08-26T02:06:27.436Z,5.78
2022-08-26T02:08:32.008Z,7.85
2022-08-26T02:10:34.273Z,5.30
2022-08-26T02:12:37.643Z,6.40
2022-08-26T02:14:46.616Z,6.43
2022-08-26T02:16:50.225Z,6.57
2022-08-26T02:18:53.435Z,6.13
2022-08-26T02:20:55.307Z,6.25
2022-08-26T02:22:57.026Z,5.78
2022-08-26T02:25:00.120Z,5.88
2022-08-26T02:27:01.455Z,5.95
2022-08-26T02:29:05.212Z,6.80
2022-08-26T02:31:08.962Z,6.80
2022-08-26T02:33:11.489Z,6.28
2022-08-26T02:35:14.112Z,6.45
2022-08-26T02:37:23.069Z,6.45
2022-08-26T02:39:24.687Z,5.60
2022-08-26T02:41:25.965Z,5.93
2022-08-26T02:43:31.680Z,5.45
2022-08-26T02:45:34.957Z,7.25
2022-08-26T02:47:36.831Z,6.28
2022-08-26T02:49:39.070Z,6.18
2022-08-26T02:51:40.369Z,6.07
2022-08-26T02:53:44.403Z,6.47
2022-08-26T02:55:49.295Z,7.13
2022-08-26T02:57:51.998Z,7.43
2022-08-26T02:59:53.299Z,6.05
2022-08-26T03:01:56.052Z,5.88
2022-08-26T03:03:57.961Z,7.07
2022-08-26T03:05:59.313Z,7.07
2022-08-26T03:08:01.220Z,6.28
2022-08-26T03:10:08.240Z,5.80
2022-08-26T03:12:10.258Z,6.70
2022-08-26T03:14:11.660Z,8.45
2022-08-26T03:16:14.918Z,6.03
2022-08-26T03:18:16.587Z,5.95
2022-08-26T03:20:18.369Z,6.82
2022-08-26T03:22:20.510Z,6.68
2022-08-26T03:24:21.959Z,5.90
2022-08-26T03:26:23.336Z,7.03
2022-08-26T03:28:24.635Z,6.65
2022-08-26T03:30:45.499Z,6.15
2022-08-26T03:32:47.218Z,7.03
2022-08-26T03:34:48.503Z,6.13
2022-08-26T03:36:50.148Z,7.45
2022-08-26T03:38:51.553Z,8.05
2022-08-26T03:40:52.891Z,9.45
2022-08-26T03:42:54.167Z,6.85
2022-08-26T03:44:55.468Z,5.80
2022-08-26T03:46:56.794Z,6.82
2022-08-26T03:48:58.410Z,13.52
2022-08-26T03:51:00.779Z,5.97
2022-08-26T03:53:04.508Z,6.38
2022-08-26T03:55:09.726Z,7.72
2022-08-26T03:57:11.042Z,6.72
2022-08-26T03:59:12.379Z,7.93
2022-08-26T04:01:16.227Z,7.55
2022-08-26T04:03:37.951Z,6.80
2022-08-26T04:05:39.783Z,7.53
2022-08-26T04:07:42.613Z,6.72
2022-08-26T04:09:44.280Z,6.35
2022-08-26T04:11:47.546Z,7.30
2022-08-26T04:13:52.115Z,6.10
2022-08-26T04:15:53.621Z,5.75
2022-08-26T04:17:56.065Z,7.22
2022-08-26T04:19:58.821Z,5.40
2022-08-26T04:22:00.374Z,6.47
2022-08-26T04:24:03.590Z,7.20
2022-08-26T04:26:05.432Z,7.88
2022-08-26T04:28:06.816Z,6.53
2022-08-26T04:30:08.941Z,7.63
2022-08-26T04:32:10.932Z,7.25
2022-08-26T04:34:14.084Z,6.82
2022-08-26T04:36:15.665Z,9.15
2022-08-26T04:38:19.863Z,6.93
2022-08-26T04:40:21.171Z,6.72
2022-08-26T04:42:22.878Z,7.32
2022-08-26T04:44:28.583Z,7.13
2022-08-26T04:46:29.979Z,8.50
2022-08-26T04:48:31.732Z,8.70
2022-08-26T04:50:33.042Z,9.63
2022-08-26T04:52:35.455Z,8.15
2022-08-26T04:54:36.736Z,7.43
2022-08-26T04:56:39.356Z,7.85
2022-08-26T04:58:41.843Z,7.53
2022-08-26T05:00:44.319Z,7.85
2022-08-26T05:02:46.113Z,6.80
2022-08-26T05:04:47.451Z,7.47
2022-08-26T05:06:57.818Z,7.68
2022-08-26T05:09:03.728Z,6.57
2022-08-26T05:11:05.870Z,9.75
2022-08-26T05:13:11.015Z,8.88
2022-08-26T05:15:12.965Z,9.57
2022-08-26T05:17:14.817Z,8.10
2022-08-26T05:19:18.886Z,6.72
2022-08-26T05:21:22.812Z,7.03
2022-08-26T05:23:24.463Z,7.97
2022-08-26T05:25:27.473Z,8.50
2022-08-26T05:27:29.025Z,9.27
2022-08-26T05:29:31.896Z,7.22
2022-08-26T05:31:34.143Z,9.88
2022-08-26T05:33:35.499Z,8.55
2022-08-26T05:35:38.214Z,11.68
2022-08-26T05:37:39.570Z,8.40
2022-08-26T05:39:41.232Z,8.00
2022-08-26T05:41:44.958Z,11.80
2022-08-26T05:43:46.703Z,8.05
2022-08-26T05:45:49.417Z,11.75
2022-08-26T05:47:51.285Z,9.88
2022-08-26T05:49:52.736Z,7.70
2022-08-26T05:51:54.323Z,12.00
2022-08-26T05:53:56.167Z,8.40
2022-08-26T05:55:58.150Z,10.60
2022-08-26T05:57:59.479Z,9.68
2022-08-26T06:00:04.464Z,8.55
2022-08-26T06:02:06.911Z,10.07
2022-08-26T06:04:08.270Z,9.57
2022-08-26T06:06:20.777Z,13.30
2022-08-26T06:08:30.007Z,9.27
2022-08-26T06:10:33.038Z,7.47
2022-08-26T06:12:34.484Z,10.38
2022-08-26T06:14:36.077Z,9.07
2022-08-26T06:16:38.733Z,14.10
2022-08-26T06:18:43.610Z,9.35
2022-08-26T06:20:49.558Z,9.32
2022-08-26T06:23:18.164Z,7.93
2022-08-26T06:25:37.954Z,8.95
2022-08-26T06:27:39.268Z,8.70
2022-08-26T06:29:40.611Z,9.48
2022-08-26T06:31:41.918Z,11.32
2022-08-26T06:33:43.919Z,10.27
2022-08-26T06:35:48.351Z,8.35
2022-08-26T06:37:49.683Z,10.20
2022-08-26T06:39:51.179Z,9.15
2022-08-26T06:41:52.913Z,8.90
2022-08-26T06:43:54.243Z,8.02
2022-08-26T06:46:06.210Z,10.45
2022-08-26T06:48:08.844Z,7.68
2022-08-26T06:50:11.174Z,9.10
2022-08-26T06:52:12.546Z,9.27
2022-08-26T06:54:14.006Z,9.57
2022-08-26T06:56:17.152Z,8.85
2022-08-26T06:58:18.476Z,10.32
2022-08-26T07:00:21.250Z,10.65
2022-08-26T07:02:23.347Z,14.38
2022-08-26T07:04:24.961Z,10.73
2022-08-26T07:06:30.065Z,10.73
2022-08-26T07:08:31.430Z,11.40
2022-08-26T07:10:32.810Z,12.88
2022-08-26T07:12:34.899Z,11.40
2022-08-26T07:14:36.725Z,10.80
2022-08-26T07:16:39.284Z,9.07
2022-08-26T07:18:42.766Z,10.70
2022-08-26T07:20:46.287Z,12.68
2022-08-26T07:22:47.600Z,14.02
2022-08-26T07:24:48.926Z,9.82
2022-08-26T07:26:50.194Z,9.32
2022-08-26T07:28:53.450Z,12.90
2022-08-26T07:30:54.876Z,12.07
2022-08-26T07:32:57.291Z,15.60
2022-08-26T07:34:59.896Z,13.20
2022-08-26T07:37:01.550Z,11.88
2022-08-26T07:39:03.466Z,9.55
2022-08-26T07:41:05.414Z,6.97
2022-08-26T07:43:07.941Z,10.57
2022-08-26T07:45:09.831Z,7.68
2022-08-26T07:47:24.753Z,10.38
2022-08-26T07:49:28.083Z,11.45
2022-08-26T07:51:29.578Z,9.77
2022-08-26T07:53:31.174Z,8.95
2022-08-26T07:55:32.663Z,13.45
2022-08-26T07:57:34.553Z,9.73
2022-08-26T07:59:36.221Z,9.98
2022-08-26T08:01:38.805Z,8.77
2022-08-26T08:03:40.542Z,10.05
2022-08-26T08:05:42.278Z,9.50
2022-08-26T08:07:45.592Z,10.23
2022-08-26T08:09:51.242Z,8.65
2022-08-26T08:11:53.006Z,7.97
2022-08-26T08:13:56.237Z,10.18
2022-08-26T08:15:58.123Z,8.38
2022-08-26T08:18:00.895Z,9.25
2022-08-26T08:20:03.108Z,7.25
2022-08-26T08:22:06.868Z,7.75
2022-08-26T08:24:18.967Z,8.48
2022-08-26T08:26:23.676Z,7.30
2022-08-26T08:28:24.979Z,8.65
2022-08-26T08:30:27.512Z,12.88
2022-08-26T08:32:29.534Z,7.57
2022-08-26T08:34:31.066Z,6.70
2022-08-26T08:36:35.968Z,8.00
2022-08-26T08:38:37.794Z,9.35
2022-08-26T08:40:40.071Z,8.02
2022-08-26T08:42:58.126Z,7.28
2022-08-26T08:45:03.020Z,9.70
2022-08-26T08:47:08.947Z,9.45
2022-08-26T08:49:13.503Z,6.53
2022-08-26T08:51:34.154Z,5.43
2022-08-26T08:53:41.520Z,7.75
2022-08-26T08:55:49.166Z,5.82
2022-08-26T08:58:02.037Z,3.60
2022-08-26T09:00:13.733Z,5.28
2022-08-26T09:02:15.130Z,4.78
2022-08-26T09:04:53.503Z,3.83
2022-08-26T09:06:55.743Z,6.03
2022-08-26T09:08:57.534Z,3.95
2022-08-26T09:11:00.724Z,4.78
2022-08-26T09:13:04.785Z,4.47
2022-08-26T09:15:30.177Z,3.90
2022-08-26T09:17:50.836Z,5.13
2022-08-26T09:21:57.551Z,3.75
2022-08-26T09:23:59.595Z,4.53
2022-08-26T09:26:12.950Z,5.15
2022-08-26T09:28:21.965Z,6.95
2022-08-26T09:30:26.443Z,3.83
2022-08-26T09:32:27.847Z,3.97
2022-08-26T09:34:29.259Z,5.75
2022-08-26T09:36:39.181Z,4.53
2022-08-26T09:38:43.122Z,7.18
2022-08-26T09:40:59.209Z,4.80
2022-08-26T09:43:30.310Z,6.90
2022-08-26T09:45:31.894Z,6.15
2022-08-26T09:47:36.939Z,7.32
2022-08-26T09:49:39.282Z,6.70
2022-08-26T09:51:42.447Z,4.75
2022-08-26T09:53:51.131Z,4.57
2022-08-26T09:56:09.878Z,6.38
2022-08-26T09:58:15.741Z,6.80
2022-08-26T10:00:23.151Z,4.25
2022-08-26T10:02:33.160Z,5.15
2022-08-26T10:04:34.614Z,5.50
2022-08-26T10:06:38.164Z,5.00
2022-08-26T10:08:42.251Z,5.43
2022-08-26T10:10:49.264Z,5.97
2022-08-26T10:13:31.158Z,9.93
2022-08-26T10:15:41.288Z,7.82
2022-08-26T10:17:55.773Z,7.68
2022-08-26T10:19:59.405Z,6.57
2022-08-26T10:22:04.116Z,5.40
2022-08-26T10:24:07.226Z,7.47
2022-08-26T10:26:15.467Z,8.73
2022-08-26T10:28:20.784Z,7.95
2022-08-26T10:30:24.234Z,6.63
2022-08-26T10:32:37.375Z,10.30
2022-08-26T10:34:43.691Z,8.00
2022-08-26T10:37:14.866Z,7.43
2022-08-26T10:39:26.343Z,6.32
2022-08-26T10:41:32.483Z,7.03
2022-08-26T10:43:41.027Z,6.20
2022-08-26T10:45:43.957Z,6.93
2022-08-26T10:47:57.217Z,6.45
2022-08-26T10:50:03.182Z,8.07
2022-08-26T10:52:04.858Z,8.25
2022-08-26T10:54:13.731Z,7.40
2022-08-26T10:56:33.638Z,6.10
2022-08-26T10:58:48.726Z,10.05
2022-08-26T11:01:14.478Z,6.07
2022-08-26T11:03:22.458Z,6.85
2022-08-26T11:05:24.633Z,6.63
2022-08-26T11:07:33.704Z,7.20
2022-08-26T11:09:47.192Z,6.88
2022-08-26T11:11:49.419Z,6.05
2022-08-26T11:13:56.401Z,7.25
2022-08-26T11:15:58.551Z,8.52
2022-08-26T11:18:09.273Z,5.95
2022-08-26T11:20:34.108Z,8.55
2022-08-26T11:22:47.346Z,8.10
2022-08-26T11:24:55.047Z,6.55
2022-08-26T11:26:56.765Z,6.93
2022-08-26T11:28:58.266Z,6.32
2022-08-26T11:30:59.640Z,8.57
2022-08-26T11:33:01.108Z,8.50
2022-08-26T11:35:06.121Z,6.72
2022-08-26T11:37:13.071Z,9.85
2022-08-26T11:39:16.694Z,6.22
2022-08-26T11:41:20.774Z,9.55
2022-08-26T11:43:25.840Z,11.88
2022-08-26T11:45:34.162Z,8.73
2022-08-26T11:47:35.578Z,8.20
2022-08-26T11:49:37.752Z,6.50
2022-08-26T11:51:40.560Z,6.75
2022-08-26T11:53:44.889Z,6.80
2022-08-26T11:55:49.989Z,8.60
2022-08-26T11:57:55.756Z,7.40
2022-08-26T11:59:57.294Z,7.03
2022-08-26T12:01:59.525Z,7.57
2022-08-26T12:04:02.807Z,7.18
2022-08-26T12:06:11.356Z,5.72
2022-08-26T12:08:24.727Z,5.90
2022-08-26T12:10:32.591Z,7.10
2022-08-26T12:12:38.478Z,7.13
2022-08-26T12:14:40.367Z,6.00
2022-08-26T12:16:42.957Z,6.60
2022-08-26T12:18:44.766Z,7.00
2022-08-26T12:20:46.410Z,6.18
2022-08-26T12:22:48.130Z,6.20
2022-08-26T12:24:52.019Z,10.00
2022-08-26T12:27:12.411Z,7.15
2022-08-26T12:29:26.791Z,6.20
2022-08-26T12:31:31.301Z,6.18
2022-08-26T12:33:35.843Z,5.30
2022-08-26T12:35:39.044Z,6.22
2022-08-26T12:37:44.075Z,7.70
2022-08-26T12:39:45.659Z,7.82
2022-08-26T12:41:49.338Z,7.13
2022-08-26T12:43:50.705Z,7.03
2022-08-26T12:45:56.505Z,7.50
2022-08-26T12:47:59.117Z,6.72
2022-08-26T12:50:03.413Z,7.75
2022-08-26T12:52:05.297Z,7.40
2022-08-26T12:54:12.516Z,8.85
2022-08-26T12:56:32.379Z,8.77
2022-08-26T12:58:35.372Z,8.93
2022-08-26T13:00:39.790Z,9.98
2022-08-26T13:02:41.197Z,8.60
2022-08-26T13:04:43.805Z,8.20
2022-08-26T13:06:45.128Z,7.10
2022-08-26T13:08:47.867Z,6.70
2022-08-26T13:11:01.422Z,7.03
2022-08-26T13:13:02.711Z,7.75
2022-08-26T13:15:04.820Z,8.23
2022-08-26T13:17:06.158Z,6.82
2022-08-26T13:19:10.293Z,8.20
2022-08-26T13:21:22.337Z,7.35
2022-08-26T13:23:23.967Z,6.93
2022-08-26T13:25:25.319Z,7.38
2022-08-26T13:27:27.329Z,6.40
2022-08-26T13:29:28.751Z,7.65
2022-08-26T13:31:31.058Z,6.50
2022-08-26T13:33:32.630Z,8.05
2022-08-26T13:35:34.009Z,9.07
2022-08-26T13:37:35.668Z,8.35
2022-08-26T13:39:38.043Z,7.30
2022-08-26T13:41:39.552Z,6.72
2022-08-26T13:43:40.863Z,7.82
2022-08-26T13:45:42.228Z,7.28
2022-08-26T13:47:44.538Z,7.72
2022-08-26T13:49:46.791Z,7.68
2022-08-26T13:51:48.150Z,6.88
2022-08-26T13:53:49.926Z,5.85
2022-08-26T13:55:51.269Z,9.93
2022-08-26T13:57:52.642Z,7.63
2022-08-26T13:59:56.300Z,6.18
2022-08-26T14:01:58.730Z,6.50
2022-08-26T14:04:00.675Z,7.90
2022-08-26T14:06:02.016Z,7.03
2022-08-26T14:08:03.754Z,6.20
2022-08-26T14:10:05.293Z,6.85
2022-08-26T14:12:06.750Z,8.35
2022-08-26T14:14:08.100Z,7.22
2022-08-26T14:16:11.859Z,6.35
2022-08-26T14:18:18.772Z,7.45
2022-08-26T14:20:23.246Z,6.43
2022-08-26T14:22:24.714Z,6.25
2022-08-26T14:24:26.091Z,6.50
2022-08-26T14:26:28.940Z,6.68
2022-08-26T14:28:31.050Z,5.78
2022-08-26T14:30:32.415Z,8.15
2022-08-26T14:32:34.188Z,6.53
2022-08-26T14:34:35.522Z,6.10
2022-08-26T14:36:37.979Z,5.75
2022-08-26T14:38:39.270Z,5.65
2022-08-26T14:40:44.519Z,5.55
2022-08-26T14:42:52.821Z,5.75
2022-08-26T14:44:57.103Z,5.83
2022-08-26T14:47:00.946Z,7.22
2022-08-26T14:49:05.260Z,6.45
2022-08-26T14:51:08.654Z,6.68
2022-08-26T14:53:28.289Z,5.15
2022-08-26T14:55:31.199Z,6.63
2022-08-26T14:57:32.516Z,5.70
2022-08-26T14:59:35.908Z,8.65
2022-08-26T15:01:37.234Z,5.07
2022-08-26T15:03:38.812Z,6.63
2022-08-26T15:05:47.986Z,5.15
2022-08-26T15:07:49.702Z,5.10
2022-08-26T15:09:50.978Z,5.22
2022-08-26T15:11:53.077Z,5.00
2022-08-26T15:13:54.531Z,4.90
2022-08-26T15:15:56.391Z,5.28
2022-08-26T15:17:57.702Z,6.25
2022-08-26T15:19:59.643Z,5.05
2022-08-26T15:22:00.950Z,4.88
2022-08-26T15:24:02.734Z,4.70
2022-08-26T15:26:04.264Z,4.50
2022-08-26T15:28:06.246Z,3.83
2022-08-26T15:30:09.942Z,5.97
2022-08-26T15:32:11.617Z,5.00
2022-08-26T15:34:16.406Z,5.20
2022-08-26T15:36:18.358Z,6.68
2022-08-26T15:38:19.678Z,4.68
2022-08-26T15:40:22.064Z,4.25
2022-08-26T15:42:23.576Z,4.03
2022-08-26T15:44:25.362Z,5.40
2022-08-26T15:46:26.698Z,5.38
2022-08-26T15:48:28.270Z,5.57
2022-08-26T15:50:29.606Z,4.72
2022-08-26T15:52:30.901Z,3.83
2022-08-26T15:54:32.492Z,4.88
2022-08-26T15:56:35.070Z,4.25
2022-08-26T15:58:36.568Z,4.95
2022-08-26T16:00:39.315Z,4.47
2022-08-26T16:02:41.036Z,4.80
2022-08-26T16:04:42.677Z,4.28
2022-08-26T16:06:46.158Z,4.03
2022-08-26T16:08:47.457Z,4.47
2022-08-26T16:10:50.521Z,4.13
2022-08-26T16:12:52.180Z,4.50
2022-08-26T16:14:53.932Z,5.25
2022-08-26T16:16:56.512Z,6.30
2022-08-26T16:18:57.840Z,3.90
2022-08-26T16:21:13.353Z,3.53
2022-08-26T16:23:15.541Z,3.38
2022-08-26T16:25:16.970Z,3.47
2022-08-26T16:27:18.309Z,3.60
2022-08-26T16:29:24.440Z,4.68
2022-08-26T16:31:25.791Z,3.72
2022-08-26T16:33:29.653Z,3.88
2022-08-26T16:35:31.627Z,3.08
2022-08-26T16:37:34.539Z,3.08
2022-08-26T16:39:40.179Z,3.47
2022-08-26T16:41:46.675Z,3.55
2022-08-26T16:43:48.246Z,4.45
2022-08-26T16:45:49.568Z,5.38
2022-08-26T16:47:51.218Z,4.82
2022-08-26T16:49:52.578Z,4.15
2022-08-26T16:51:53.894Z,5.47
2022-08-26T16:53:56.166Z,6.03
2022-08-26T16:55:57.462Z,3.40
2022-08-26T16:57:59.401Z,3.88
2022-08-26T17:00:02.236Z,3.50
2022-08-26T17:02:04.858Z,3.50
2022-08-26T17:04:06.337Z,4.95
2022-08-26T17:06:07.843Z,3.78
2022-08-26T17:08:09.499Z,4.13
2022-08-26T17:10:11.013Z,5.82
2022-08-26T17:12:12.519Z,3.40
2022-08-26T17:14:13.816Z,5.97
2022-08-26T17:16:15.356Z,3.83
2022-08-26T17:18:16.719Z,4.78
2022-08-26T17:20:18.600Z,4.13
2022-08-26T17:22:19.979Z,4.68
2022-08-26T17:24:21.459Z,3.40
2022-08-26T17:26:22.941Z,4.57
2022-08-26T17:28:24.235Z,4.00
2022-08-26T17:30:25.918Z,3.70
2022-08-26T17:32:29.042Z,5.18
2022-08-26T17:34:30.350Z,5.65
2022-08-26T17:36:31.702Z,5.47
2022-08-26T17:38:33.117Z,5.20
2022-08-26T17:40:34.810Z,3.88
2022-08-26T17:42:39.440Z,4.35
2022-08-26T17:44:40.802Z,5.57
2022-08-26T17:46:42.151Z,5.35
2022-08-26T17:48:43.551Z,4.60
2022-08-26T17:50:45.503Z,5.78
2022-08-26T17:52:50.917Z,4.30
2022-08-26T17:54:52.655Z,5.40
2022-08-26T17:56:53.956Z,3.42
2022-08-26T17:58:57.601Z,5.18
2022-08-26T18:01:05.867Z,4.13
2022-08-26T18:03:07.575Z,3.80
2022-08-26T18:05:09.603Z,4.72
2022-08-26T18:07:10.922Z,3.53
2022-08-26T18:09:12.261Z,3.97
2022-08-26T18:11:15.075Z,4.20
2022-08-26T18:13:16.960Z,4.45
2022-08-26T18:15:18.387Z,4.30
2022-08-26T18:17:19.714Z,4.18
2022-08-26T18:19:21.083Z,3.38
2022-08-26T18:21:24.100Z,3.38
2022-08-26T18:23:26.754Z,3.78
2022-08-26T18:25:28.190Z,4.07
2022-08-26T18:27:29.498Z,3.97
2022-08-26T18:29:30.795Z,3.60
2022-08-26T18:31:32.330Z,3.92
2022-08-26T18:33:33.726Z,3.72
2022-08-26T18:35:44.880Z,3.50
2022-08-26T18:37:46.257Z,3.28
2022-08-26T18:39:48.512Z,4.38
2022-08-26T18:41:52.269Z,5.63
2022-08-26T18:43:53.976Z,3.92
2022-08-26T18:46:05.177Z,5.47
2022-08-26T18:48:06.717Z,3.78
2022-08-26T18:50:08.582Z,3.58
2022-08-26T18:52:10.181Z,3.58
2022-08-26T18:54:11.641Z,4.30
2022-08-26T18:56:15.391Z,4.47
2022-08-26T18:58:19.435Z,3.55
2022-08-26T19:00:20.768Z,5.47
2022-08-26T19:02:22.127Z,5.15
2022-08-26T19:04:23.564Z,3.95
2022-08-26T19:06:25.707Z,4.03
2022-08-26T19:08:27.056Z,3.45
2022-08-26T19:10:28.423Z,4.40
2022-08-26T19:12:29.715Z,4.13
2022-08-26T19:14:35.691Z,3.25
2022-08-26T19:16:37.475Z,3.65
2022-08-26T19:18:38.884Z,3.78
2022-08-26T19:20:44.713Z,3.95
2022-08-26T19:22:47.952Z,3.53
2022-08-26T19:24:49.323Z,3.90
2022-08-26T19:26:57.537Z,3.58
2022-08-26T19:28:59.830Z,3.15
2022-08-26T19:31:01.592Z,3.47
2022-08-26T19:33:05.140Z,3.83
2022-08-26T19:35:08.511Z,3.42
2022-08-26T19:37:10.247Z,5.55
2022-08-26T19:39:11.938Z,3.85
2022-08-26T19:41:14.659Z,5.53
2022-08-26T19:43:16.112Z,3.63
2022-08-26T19:45:18.339Z,5.22
2022-08-26T19:47:26.497Z,4.32
2022-08-26T19:49:27.816Z,4.75
2022-08-26T19:51:30.954Z,11.20
2022-08-26T19:53:32.267Z,7.80
2022-08-26T19:55:33.658Z,8.13
2022-08-26T19:57:35.739Z,11.40
2022-08-26T19:59:37.101Z,9.80
2022-08-26T20:01:38.527Z,5.88
2022-08-26T20:03:40.491Z,8.25
2022-08-26T20:05:41.789Z,7.47
2022-08-26T20:07:43.141Z,12.50
2022-08-26T20:09:44.696Z,7.65
2022-08-26T20:11:46.043Z,5.20
2022-08-26T20:13:47.675Z,4.57
2022-08-26T20:15:49.152Z,8.32
2022-08-26T20:17:51.321Z,6.38
2022-08-26T20:20:26.945Z,7.75
2022-08-26T20:22:33.131Z,8.00
2022-08-26T20:24:35.480Z,11.55
2022-08-26T20:26:37.592Z,4.68
2022-08-26T20:28:39.005Z,6.28
2022-08-26T20:30:40.408Z,4.80
2022-08-26T20:32:42.523Z,10.05
2022-08-26T20:34:44.091Z,9.05
2022-08-26T20:36:46.496Z,14.05
2022-08-26T20:38:48.126Z,9.75
2022-08-26T20:40:50.290Z,6.72
2022-08-26T20:42:55.453Z,5.38
2022-08-26T20:44:57.407Z,6.28
2022-08-26T20:46:59.231Z,8.70
2022-08-26T20:49:00.712Z,7.75
2022-08-26T20:51:02.125Z,4.78
2022-08-26T20:53:03.593Z,7.07
2022-08-26T20:55:05.163Z,5.38
2022-08-26T20:57:06.482Z,5.63
2022-08-26T20:59:07.956Z,5.72
2022-08-26T21:01:17.645Z,5.35
2022-08-26T21:03:19.083Z,6.30
2022-08-26T21:05:20.619Z,6.95
2022-08-26T21:07:22.340Z,5.05
2022-08-26T21:09:24.977Z,4.93
2022-08-26T21:11:26.382Z,7.13
2022-08-26T21:13:29.023Z,6.03
2022-08-26T21:15:38.228Z,6.37
2022-08-26T21:17:39.641Z,6.30
2022-08-26T21:19:41.154Z,6.00
2022-08-26T21:21:42.629Z,5.28
2022-08-26T21:23:44.006Z,11.68
2022-08-26T21:25:45.643Z,6.43
2022-08-26T21:27:47.042Z,5.13
2022-08-26T21:29:48.605Z,4.93
2022-08-26T21:31:53.374Z,4.97
2022-08-26T21:33:54.849Z,4.55
2022-08-26T21:35:56.501Z,6.18
2022-08-26T21:37:57.881Z,5.13
2022-08-26T21:39:59.627Z,6.68
2022-08-26T21:42:00.974Z,6.63
2022-08-26T21:44:02.439Z,6.13
2022-08-26T21:46:11.329Z,6.82
2022-08-26T21:48:12.666Z,7.32
2022-08-26T21:50:13.972Z,6.70
2022-08-26T21:52:15.331Z,5.40
2022-08-26T21:54:18.223Z,7.30
2022-08-26T21:56:20.722Z,6.35
2022-08-26T21:58:22.178Z,8.57
2022-08-26T22:00:23.669Z,7.20
2022-08-26T22:02:25.091Z,6.15
2022-08-26T22:04:26.494Z,5.88
2022-08-26T22:06:29.550Z,5.97
2022-08-26T22:08:31.080Z,6.93
2022-08-26T22:10:32.407Z,5.53
2022-08-26T22:12:33.978Z,6.00
2022-08-26T22:14:35.339Z,7.32
2022-08-26T22:16:36.705Z,6.05
2022-08-26T22:18:38.271Z,5.00
2022-08-26T22:20:39.802Z,5.57
2022-08-26T22:22:41.126Z,5.38
2022-08-26T22:24:44.290Z,5.18
2022-08-26T22:26:45.858Z,5.38
2022-08-26T22:28:47.466Z,6.20
2022-08-26T22:30:48.827Z,5.70
2022-08-26T22:32:50.410Z,4.50
2022-08-26T22:34:51.895Z,4.25
2022-08-26T22:36:54.141Z,5.07
2022-08-26T22:38:56.191Z,5.97
2022-08-26T22:40:57.747Z,5.03
2022-08-26T22:43:00.262Z,7.43
2022-08-26T22:45:02.246Z,5.35
2022-08-26T22:47:03.670Z,5.68
2022-08-26T22:49:05.208Z,5.68
2022-08-26T22:51:06.695Z,5.82
2022-08-26T22:53:08.142Z,6.50
2022-08-26T22:55:10.582Z,5.75
2022-08-26T22:57:11.883Z,5.35
2022-08-26T22:59:13.398Z,5.63
2022-08-26T23:01:16.718Z,5.38
2022-08-26T23:03:18.363Z,5.25
2022-08-26T23:05:19.707Z,6.32
2022-08-26T23:07:21.043Z,6.80
2022-08-26T23:09:22.391Z,6.30
2022-08-26T23:11:23.842Z,8.55
2022-08-26T23:13:25.348Z,5.03
2022-08-26T23:15:26.926Z,5.63
2022-08-26T23:17:28.247Z,5.70
2022-08-26T23:19:29.591Z,5.60
2022-08-26T23:21:30.936Z,5.10
2022-08-26T23:23:32.478Z,5.35
2022-08-26T23:25:33.979Z,5.15
2022-08-26T23:27:36.774Z,5.68
2022-08-26T23:29:39.563Z,6.60
2022-08-26T23:31:41.511Z,5.78
2022-08-26T23:34:01.506Z,7.15
2022-08-26T23:36:07.666Z,4.95
2022-08-26T23:38:10.333Z,6.18
2022-08-26T23:40:17.268Z,5.78
2022-08-26T23:42:22.308Z,6.85
2022-08-26T23:44:25.796Z,5.78
2022-08-26T23:46:27.139Z,5.63
2022-08-26T23:48:28.475Z,6.20
2022-08-26T23:50:49.720Z,5.80
2022-08-26T23:53:06.294Z,5.68
2022-08-26T23:55:08.454Z,6.20
2022-08-26T23:57:09.826Z,5.38
2022-08-26T23:59:11.265Z,5.50
